Time;durP1;ratioP1;P1;durP2;ratioP2;P2;SDS_P1;SDS_P2;PMS_P1;PMS_P2;Temp;Humidity;BMP_temperature;BMP_pressure;BME280_temperature;BME280_humidity;BME280_pressure;Samples;Min_cycle;Max_cycle;Signal;HPM_P1;HPM_P2
2021/03/24 00:01:56;;;;;;;16.52;9.27;;;;;;;6.59;57.08;100616.63;6130041;23;20085;-63
2021/03/24 00:04:22;;;;;;;15.13;9.82;;;;;;;6.57;57.27;100609.78;6129941;23;20077;-62
2021/03/24 00:06:47;;;;;;;17.88;10.23;;;;;;;6.60;57.39;100621.03;6129898;23;20365;-60
2021/03/24 00:09:15;;;;;;;14.75;9.25;;;;;;;6.63;57.81;100620.28;6130306;23;20009;-60
2021/03/24 00:11:40;;;;;;;15.18;9.68;;;;;;;6.61;57.30;100627.44;6129607;23;20367;-58
2021/03/24 00:14:06;;;;;;;13.52;9.23;;;;;;;6.60;57.63;100620.22;6129868;23;20056;-61
2021/03/24 00:16:31;;;;;;;16.00;9.73;;;;;;;6.56;58.02;100613.75;6129962;23;20010;-57
2021/03/24 00:18:57;;;;;;;12.80;9.15;;;;;;;6.60;57.70;100628.59;6130048;23;20002;-64
2021/03/24 00:21:22;;;;;;;14.77;9.57;;;;;;;6.59;58.31;100616.63;6129858;23;20005;-62
2021/03/24 00:23:47;;;;;;;12.75;8.68;;;;;;;6.57;58.80;100626.53;6129980;23;20262;-63
2021/03/24 00:26:13;;;;;;;15.07;9.38;;;;;;;6.55;58.83;100628.88;6129365;23;20398;-61
2021/03/24 00:28:38;;;;;;;16.70;9.45;;;;;;;6.50;59.45;100625.22;6129647;23;20009;-62
2021/03/24 00:31:04;;;;;;;14.43;9.77;;;;;;;6.54;59.49;100630.06;6129783;23;20002;-62
2021/03/24 00:33:29;;;;;;;14.65;9.27;;;;;;;6.53;59.25;100628.44;6104054;23;20002;-61
2021/03/24 00:35:55;;;;;;;15.18;9.35;;;;;;;6.49;59.76;100625.59;6129562;23;20009;-63
2021/03/24 00:38:24;;;;;;;14.73;9.57;;;;;;;6.46;59.78;100624.34;6129940;23;20421;-62
2021/03/24 00:40:53;;;;;;;17.80;9.60;;;;;;;6.45;60.50;100608.78;6103765;23;20017;-66
2021/03/24 00:43:18;;;;;;;13.93;9.10;;;;;;;6.45;60.18;100614.34;6129553;23;20025;-62
2021/03/24 00:45:44;;;;;;;14.68;9.10;;;;;;;6.46;59.97;100626.34;6129895;23;20009;-61
2021/03/24 00:48:22;;;;;;;12.35;8.90;;;;;;;6.46;60.07;100617.97;6129644;23;20009;-62
2021/03/24 00:50:47;;;;;;;16.30;9.30;;;;;;;6.44;61.01;100617.53;6129859;23;20006;-62
2021/03/24 00:53:13;;;;;;;13.60;8.70;;;;;;;6.44;60.28;100618.31;6129587;23;20013;-63
2021/03/24 00:55:38;;;;;;;14.00;9.07;;;;;;;6.44;60.59;100617.53;6129504;23;20005;-61
2021/03/24 00:58:04;;;;;;;13.45;8.93;;;;;;;6.43;60.70;100610.31;6129413;23;20355;-61
2021/03/24 01:00:33;;;;;;;12.25;8.68;;;;;;;6.42;60.44;100612.31;6129446;23;20107;-62
2021/03/24 01:02:59;;;;;;;14.00;8.68;;;;;;;6.41;61.05;100607.91;6130083;23;20009;-63
2021/03/24 01:05:25;;;;;;;13.45;9.00;;;;;;;6.48;60.71;100602.44;6129364;23;20271;-61
2021/03/24 01:07:52;;;;;;;13.55;8.45;;;;;;;6.47;60.66;100600.84;6129500;23;20002;-64
2021/03/24 01:10:40;;;;;;;16.33;9.07;;;;;;;6.46;61.06;100615.16;6129457;23;20378;-62
2021/03/24 01:13:07;;;;;;;14.13;8.70;;;;;;;6.41;61.18;100610.69;6129636;23;20002;-63
2021/03/24 01:15:35;;;;;;;13.50;8.85;;;;;;;6.39;60.94;100620.63;6129497;23;20017;-62
2021/03/24 01:18:00;;;;;;;15.18;8.90;;;;;;;6.35;61.34;100626.13;6129359;23;20002;-62
2021/03/24 01:20:29;;;;;;;12.05;9.02;;;;;;;6.33;61.52;100628.50;6129581;23;20088;-62
2021/03/24 01:22:55;;;;;;;12.90;9.35;;;;;;;6.32;61.72;100626.06;6128222;23;20006;-63
2021/03/24 01:25:22;;;;;;;13.75;9.90;;;;;;;6.31;61.78;100630.03;6103529;23;20002;-62
2021/03/24 01:27:48;;;;;;;13.55;9.20;;;;;;;6.29;61.54;100633.16;6105783;23;20145;-62
2021/03/24 01:30:15;;;;;;;17.58;9.48;;;;;;;6.34;61.74;100616.16;6131229;23;20037;-63
2021/03/24 01:32:41;;;;;;;16.50;9.30;;;;;;;6.35;61.55;100622.53;6131054;23;20017;-63
2021/03/24 01:35:08;;;;;;;22.67;10.25;;;;;;;6.31;61.99;100622.47;6131821;23;20002;-63
2021/03/24 01:37:34;;;;;;;17.73;10.50;;;;;;;6.31;61.83;100625.25;6131606;23;20020;-62
2021/03/24 01:40:00;;;;;;;16.10;10.60;;;;;;;6.29;62.20;100612.81;6130971;23;20270;-63
2021/03/24 01:42:25;;;;;;;22.63;10.73;;;;;;;6.27;62.24;100615.97;6131306;23;20042;-62
2021/03/24 01:45:16;;;;;;;16.80;10.85;;;;;;;6.26;62.00;100619.94;6131404;23;20008;-61
2021/03/24 01:47:43;;;;;;;16.83;10.68;;;;;;;6.27;62.52;100617.97;6131409;23;20014;-59
2021/03/24 01:50:23;;;;;;;18.23;11.70;;;;;;;6.26;62.47;100611.56;6131375;23;20009;-61
2021/03/24 01:52:49;;;;;;;20.92;12.55;;;;;;;6.25;62.80;100621.13;6130844;23;20010;-56
2021/03/24 01:55:15;;;;;;;19.30;12.10;;;;;;;6.22;62.73;100616.28;6131549;23;20056;-55
2021/03/24 01:57:44;;;;;;;19.73;12.45;;;;;;;6.20;62.68;100613.06;6131293;23;20354;-58
2021/03/24 02:00:24;;;;;;;18.13;12.27;;;;;;;6.19;63.13;100611.44;6130633;23;20006;-63
2021/03/24 02:02:49;;;;;;;17.85;11.77;;;;;;;6.15;63.22;100611.38;6131606;23;19994;-57
2021/03/24 02:05:15;;;;;;;19.77;12.60;;;;;;;6.14;63.45;100614.53;6130896;23;20006;-63
2021/03/24 02:07:55;;;;;;;22.42;12.45;;;;;;;6.12;63.71;100616.88;6130737;23;20012;-60
2021/03/24 02:10:42;;;;;;;20.48;12.85;;;;;;;6.11;63.23;100609.69;6131181;23;20377;-61
2021/03/24 02:13:30;;;;;;;22.75;13.48;;;;;;;6.11;63.34;100613.28;6131115;23;20002;-62
2021/03/24 02:15:59;;;;;;;18.98;12.48;;;;;;;6.11;63.38;100612.47;6130830;23;20251;-62
2021/03/24 02:18:27;;;;;;;26.17;13.73;;;;;;;6.10;63.53;100613.66;6105581;23;20077;-61
2021/03/24 02:21:04;;;;;;;20.90;13.32;;;;;;;6.09;63.38;100612.84;6130879;23;20005;-64
2021/03/24 02:23:43;;;;;;;22.80;14.00;;;;;;;6.09;63.84;100629.59;6130773;23;19998;-63
2021/03/24 02:26:27;;;;;;;19.60;13.10;;;;;;;6.15;64.01;100625.31;6129917;23;20073;-63
2021/03/24 02:28:55;;;;;;;19.98;12.90;;;;;;;6.19;63.98;100628.19;6130774;23;20008;-62
2021/03/24 02:31:24;;;;;;;22.95;13.00;;;;;;;6.27;63.76;100621.56;6131238;23;20053;-57
2021/03/24 02:33:52;;;;;;;19.33;13.48;;;;;;;6.24;63.29;100647.41;6130587;23;20014;-62
2021/03/24 02:36:21;;;;;;;19.75;12.68;;;;;;;6.23;63.39;100642.22;6130911;23;20262;-61
2021/03/24 02:38:51;;;;;;;23.08;13.95;;;;;;;6.20;63.25;100647.34;6130440;23;20353;-61
2021/03/24 02:41:18;;;;;;;21.60;13.25;;;;;;;6.19;63.37;100640.16;6130664;23;20018;-58
2021/03/24 02:43:44;;;;;;;19.65;12.65;;;;;;;6.18;63.77;100643.31;6130801;23;20005;-60
2021/03/24 02:46:12;;;;;;;25.02;15.20;;;;;;;6.19;64.99;100644.94;6130189;23;20080;-62
2021/03/24 02:48:40;;;;;;;18.55;12.75;;;;;;;6.19;63.88;100644.94;6130859;23;20064;-60
2021/03/24 02:51:10;;;;;;;19.98;14.18;;;;;;;6.19;63.79;100656.09;6130460;23;20002;-61
2021/03/24 02:53:38;;;;;;;20.83;14.18;;;;;;;6.17;64.01;100650.06;6130481;23;20002;-63
2021/03/24 02:56:06;;;;;;;20.33;13.13;;;;;;;6.17;64.05;100648.09;6130712;23;20370;-64
2021/03/24 02:58:33;;;;;;;19.55;13.13;;;;;;;6.15;63.48;100655.22;6130961;23;20002;-61
2021/03/24 03:01:01;;;;;;;20.33;13.15;;;;;;;6.14;64.07;100659.19;6130341;23;20014;-61
2021/03/24 03:03:31;;;;;;;23.30;14.10;;;;;;;6.18;64.08;100666.47;6130627;23;19998;-60
2021/03/24 03:05:59;;;;;;;23.05;14.35;;;;;;;6.15;63.94;100658.81;6130478;23;20029;-61
2021/03/24 03:08:31;;;;;;;22.27;13.50;;;;;;;6.15;63.78;100660.81;6130237;23;20001;-61
2021/03/24 03:11:01;;;;;;;21.98;12.93;;;;;;;6.15;63.86;100660.81;6130612;23;20077;-59
2021/03/24 03:13:38;;;;;;;19.70;13.70;;;;;;;6.13;64.45;100652.78;6130436;23;20259;-62
2021/03/24 03:16:08;;;;;;;18.27;13.02;;;;;;;6.12;64.58;100655.94;6130511;23;20010;-63
2021/03/24 03:18:49;;;;;;;20.63;14.25;;;;;;;6.12;64.18;100655.94;6130338;23;20032;-60
2021/03/24 03:21:18;;;;;;;22.42;13.30;;;;;;;6.12;64.19;100655.94;6130053;23;20545;-59
2021/03/24 03:23:45;;;;;;;20.73;13.23;;;;;;;6.10;64.00;100653.53;6130387;23;20006;-60
2021/03/24 03:26:14;;;;;;;20.73;13.02;;;;;;;6.10;64.28;100656.31;6130369;23;20009;-61
2021/03/24 03:28:43;;;;;;;20.35;13.35;;;;;;;6.11;64.37;100662.72;6130360;23;20001;-62
2021/03/24 03:31:13;;;;;;;24.42;13.73;;;;;;;6.11;64.29;100657.13;6130305;23;20312;-61
2021/03/24 03:33:40;;;;;;;22.25;13.95;;;;;;;6.11;64.58;100655.16;6129959;23;20012;-60
2021/03/24 03:36:06;;;;;;;21.95;13.43;;;;;;;6.11;64.46;100662.72;6130085;23;20432;-60
2021/03/24 03:38:34;;;;;;;24.40;14.63;;;;;;;6.09;64.58;100663.06;6130344;23;20033;-61
2021/03/24 03:41:03;;;;;;;19.98;12.82;;;;;;;6.09;64.69;100665.88;6130010;23;20018;-60
2021/03/24 03:43:29;;;;;;;19.98;12.70;;;;;;;6.08;64.91;100667.03;6130355;23;20025;-59
2021/03/24 03:45:58;;;;;;;20.02;13.82;;;;;;;6.07;64.91;100661.84;6130248;23;20350;-62
2021/03/24 03:48:24;;;;;;;20.60;13.77;;;;;;;6.07;64.77;100664.63;6129924;23;20009;-59
2021/03/24 03:50:56;;;;;;;21.92;13.40;;;;;;;6.05;65.23;100672.56;6129891;23;20002;-61
2021/03/24 03:53:50;;;;;;;19.75;13.10;;;;;;;6.04;65.42;100665.34;6130204;23;20084;-60
2021/03/24 03:56:27;;;;;;;24.27;13.27;;;;;;;6.05;65.23;100676.16;6130435;23;20084;-63
2021/03/24 03:59:12;;;;;;;23.05;13.07;;;;;;;6.04;65.73;100682.09;6129778;23;20010;-61
2021/03/24 04:01:50;;;;;;;21.60;13.55;;;;;;;6.04;65.84;100682.09;6130176;23;20355;-60
2021/03/24 04:04:21;;;;;;;22.33;13.80;;;;;;;6.07;65.51;100686.94;6129560;23;20002;-62
2021/03/24 04:06:55;;;;;;;24.30;13.98;;;;;;;6.10;65.60;100691.78;6130287;23;20008;-63
2021/03/24 04:09:21;;;;;;;21.83;14.60;;;;;;;6.09;65.69;100692.97;6129798;23;20240;-62
2021/03/24 04:11:52;;;;;;;22.15;14.23;;;;;;;6.08;65.97;100700.53;6129129;23;20060;-55
2021/03/24 04:14:21;;;;;;;22.92;15.43;;;;;;;6.07;65.45;100704.50;6130431;23;20002;-58
2021/03/24 04:16:47;;;;;;;23.55;14.20;;;;;;;6.08;65.75;100699.72;6129628;23;20081;-58
2021/03/24 04:19:16;;;;;;;23.90;15.52;;;;;;;6.09;65.39;100701.34;6103935;23;20096;-56
2021/03/24 04:21:45;;;;;;;21.48;14.15;;;;;;;6.08;65.76;100694.16;6129939;23;20339;-57
2021/03/24 04:24:26;;;;;;;20.85;14.30;;;;;;;6.13;65.56;100696.63;6129672;23;20057;-57
2021/03/24 04:27:02;;;;;;;23.27;14.90;;;;;;;6.12;65.38;100697.81;6130197;23;20064;-58
2021/03/24 04:29:35;;;;;;;23.92;15.00;;;;;;;6.10;66.03;100697.38;6129324;23;20029;-59
2021/03/24 04:32:03;;;;;;;27.50;16.00;;;;;;;6.09;65.99;100704.13;6129965;23;20080;-57
2021/03/24 04:34:30;;;;;;;22.60;15.18;;;;;;;6.07;66.10;100704.50;6129703;23;20006;-57
2021/03/24 04:37:07;;;;;;;22.35;14.70;;;;;;;6.08;66.45;100699.72;6129640;23;20002;-57
2021/03/24 04:39:40;;;;;;;25.95;15.18;;;;;;;6.11;66.22;100699.00;6129764;23;20005;-57
2021/03/24 04:42:15;;;;;;;23.92;15.18;;;;;;;6.12;66.39;100700.59;6129535;23;20044;-56
2021/03/24 04:44:44;;;;;;;25.55;15.30;;;;;;;6.14;66.56;100698.25;6129969;23;19997;-57
2021/03/24 04:47:17;;;;;;;22.23;14.25;;;;;;;6.13;66.34;100702.22;6129589;23;20007;-58
2021/03/24 04:50:07;;;;;;;22.77;15.07;;;;;;;6.13;66.21;100713.38;6129858;23;20014;-60
2021/03/24 04:52:35;;;;;;;22.10;14.18;;;;;;;6.12;66.07;100715.38;6129384;23;20002;-62
2021/03/24 04:55:08;;;;;;;26.98;15.88;;;;;;;6.09;65.95;100721.69;6129756;23;20053;-62
2021/03/24 04:57:34;;;;;;;23.60;14.73;;;;;;;6.07;66.60;100726.00;6129844;23;20028;-62
2021/03/24 05:00:08;;;;;;;23.00;15.55;;;;;;;6.05;66.47;100739.53;6129034;23;20009;-56
2021/03/24 05:02:36;;;;;;;25.00;15.73;;;;;;;6.01;67.13;100727.44;6129337;23;20069;-57
2021/03/24 05:05:15;;;;;;;24.65;16.38;;;;;;;5.99;66.75;100732.59;6129714;23;20118;-57
2021/03/24 05:07:46;;;;;;;24.85;15.95;;;;;;;5.99;66.28;100735.38;6129605;23;20009;-59
2021/03/24 05:10:17;;;;;;;25.55;16.42;;;;;;;6.01;66.94;100733.84;6129187;23;20303;-57
2021/03/24 05:12:47;;;;;;;20.63;13.82;;;;;;;6.03;66.94;100734.31;6129286;23;20009;-59
2021/03/24 05:15:20;;;;;;;24.65;14.10;;;;;;;6.04;66.74;100733.13;6129685;23;20016;-59
2021/03/24 05:17:46;;;;;;;25.45;15.30;;;;;;;6.06;66.67;100746.72;6103694;23;20009;-55
2021/03/24 05:20:35;;;;;;;23.73;16.00;;;;;;;6.06;66.98;100746.72;6129134;23;20072;-58
2021/03/24 05:23:00;;;;;;;23.65;14.68;;;;;;;6.05;66.97;100748.72;6088562;23;20040;-58
2021/03/24 05:25:33;;;;;;;29.80;16.00;;;;;;;6.06;66.85;100760.69;6129780;23;20093;-58
2021/03/24 05:28:20;;;;;;;26.85;16.60;;;;;;;6.04;66.82;100760.22;6129497;23;20081;-57
2021/03/24 05:31:14;;;;;;;25.98;15.48;;;;;;;6.03;66.95;100753.03;6128725;23;20009;-59
2021/03/24 05:33:45;;;;;;;26.30;16.15;;;;;;;6.01;67.34;100769.31;6113547;23;20012;-57
2021/03/24 05:36:24;;;;;;;24.95;15.02;;;;;;;5.98;67.55;100770.03;6129407;23;20010;-58
2021/03/24 05:38:52;;;;;;;29.45;15.02;;;;;;;5.95;67.82;100762.38;6128263;23;20006;-58
2021/03/24 05:41:34;;;;;;;27.17;17.55;;;;;;;5.94;67.65;100766.34;6128934;23;20338;-57
2021/03/24 05:44:31;;;;;;;57.50;28.98;;;;;;;5.94;67.83;100777.50;6129467;23;20056;-58
2021/03/24 05:47:06;;;;;;;137.27;57.58;;;;;;;5.94;67.59;100777.50;6129446;23;20013;-60
2021/03/24 05:49:52;;;;;;;125.00;57.17;;;;;;;5.95;67.30;100770.75;6129230;23;20012;-59
2021/03/24 05:52:55;;;;;;;91.30;46.60;;;;;;;5.98;67.22;100778.41;6129555;23;20002;-59
2021/03/24 05:55:39;;;;;;;59.00;35.50;;;;;;;5.99;66.89;100774.44;6129482;23;20012;-58
2021/03/24 05:58:26;;;;;;;41.85;28.40;;;;;;;5.99;67.04;100785.59;6129193;23;20060;-58
2021/03/24 06:01:15;;;;;;;40.28;27.92;;;;;;;5.99;67.33;100785.59;6128522;23;20017;-58
2021/03/24 06:03:56;;;;;;;35.85;23.98;;;;;;;5.99;67.46;100791.19;6128561;23;20044;-55
2021/03/24 06:06:49;;;;;;;29.70;20.35;;;;;;;5.99;67.47;100780.84;6128818;23;20072;-60
2021/03/24 06:09:33;;;;;;;31.13;20.42;;;;;;;6.04;67.42;100782.56;6128414;23;20010;-61
2021/03/24 06:12:46;;;;;;;38.53;22.15;;;;;;;6.10;67.13;100783.88;6129085;23;20009;-61
2021/03/24 06:15:30;;;;;;;32.53;19.60;;;;;;;6.15;67.30;100789.19;6127289;23;20082;-64
2021/03/24 06:18:32;;;;;;;34.80;19.35;;;;;;;6.20;67.17;100784.13;6129884;23;20002;-63
2021/03/24 06:21:00;;;;;;;;;;;;;;;6.25;66.92;100785.00;6131267;23;20006;-60
2021/03/24 06:23:31;;;;;;;35.47;21.20;;;;;;;6.28;67.11;100785.09;6131327;23;19911;-59
2021/03/24 06:26:04;;;;;;;30.98;18.83;;;;;;;6.32;66.61;100777.63;6105091;23;20077;-58
2021/03/24 06:28:53;;;;;;;33.35;20.48;;;;;;;6.39;66.58;100796.53;6130643;23;20040;-54
2021/03/24 06:31:49;;;;;;;29.27;18.95;;;;;;;6.47;66.36;100784.31;6131232;23;20009;-53
2021/03/24 06:34:21;;;;;;;30.33;18.83;;;;;;;6.47;66.05;100776.75;6130859;23;20294;-58
2021/03/24 06:37:04;;;;;;;28.08;18.88;;;;;;;6.47;66.06;100781.53;6130670;23;20005;-56
2021/03/24 06:39:32;;;;;;;28.35;18.35;;;;;;;6.49;66.13;100788.38;6130899;23;20038;-58
2021/03/24 06:42:35;;;;;;;32.90;19.67;;;;;;;6.53;66.21;100788.44;6129988;23;20025;-58
2021/03/24 06:45:34;;;;;;;33.17;19.38;;;;;;;6.57;66.05;100792.13;6130725;23;20001;-61
2021/03/24 06:48:12;;;;;;;32.53;21.00;;;;;;;6.59;66.05;100802.97;6130699;23;20359;-59
2021/03/24 06:50:53;;;;;;;32.75;20.08;;;;;;;6.63;65.88;100806.63;6130597;23;20017;-61
2021/03/24 06:53:49;;;;;;;32.75;20.40;;;;;;;6.67;65.57;100802.72;6130619;23;20012;-62
2021/03/24 06:56:52;;;;;;;32.85;21.23;;;;;;;6.72;65.12;100808.03;6130655;23;20026;-58
2021/03/24 06:59:52;;;;;;;59.95;29.00;;;;;;;6.75;64.86;100807.28;6130399;23;20025;-62
2021/03/24 07:02:54;;;;;;;247.65;87.25;;;;;;;6.79;65.06;100810.16;6130623;23;20009;-59
2021/03/24 07:05:31;;;;;;;116.30;45.85;;;;;;;6.85;64.93;100821.84;6130336;23;20002;-57
2021/03/24 07:08:31;;;;;;;145.75;63.92;;;;;;;6.89;64.64;100823.56;6130901;23;20028;-57
2021/03/24 07:11:20;;;;;;;70.07;36.75;;;;;;;6.96;64.63;100828.47;6130691;23;20002;-58
2021/03/24 07:14:11;;;;;;;49.58;29.63;;;;;;;7.04;64.38;100819.06;6128762;23;20258;-55
2021/03/24 07:17:08;;;;;;;49.63;26.00;;;;;;;7.13;64.12;100817.66;6130618;23;20381;-56
2021/03/24 07:19:58;;;;;;;33.63;21.60;;;;;;;7.24;63.10;100822.66;6130369;23;20073;-55
2021/03/24 07:22:32;;;;;;;51.08;27.23;;;;;;;7.31;63.41;100825.56;6130144;23;19997;-57
2021/03/24 07:25:35;;;;;;;50.15;25.33;;;;;;;7.35;63.37;100832.03;6129952;23;20034;-56
2021/03/24 07:28:23;;;;;;;90.10;36.47;;;;;;;7.35;63.38;100832.84;6130150;23;20002;-56
2021/03/24 07:31:00;;;;;;;27.45;16.70;;;;;;;7.44;63.04;100829.84;6130366;23;20014;-55
2021/03/24 07:33:58;;;;;;;30.13;18.17;;;;;;;7.43;63.30;100837.44;6130263;23;20061;-52
2021/03/24 07:36:49;;;;;;;20.85;14.82;;;;;;;7.42;63.39;100841.41;6114727;23;20088;-59
2021/03/24 07:39:56;;;;;;;23.13;14.73;;;;;;;7.46;63.82;100841.47;6130605;23;19998;-57
2021/03/24 07:42:39;;;;;;;20.23;13.57;;;;;;;7.46;63.89;100835.88;6118995;23;20107;-58
2021/03/24 07:45:16;;;;;;;24.35;15.20;;;;;;;7.48;63.65;100844.69;6130338;23;20006;-56
2021/03/24 07:47:42;;;;;;;44.00;25.58;;;;;;;7.49;63.40;100843.53;6130255;23;20033;-57
2021/03/24 07:50:19;;;;;;;18.98;13.32;;;;;;;7.53;62.97;100846.38;6129988;23;20072;-56
2021/03/24 07:52:53;;;;;;;20.75;13.93;;;;;;;7.53;63.33;100855.56;6130216;23;20005;-57
2021/03/24 07:55:30;;;;;;;18.42;11.95;;;;;;;7.53;63.05;100851.97;6130275;23;20009;-57
2021/03/24 07:58:08;;;;;;;18.73;12.57;;;;;;;7.53;63.34;100865.97;6129920;23;20013;-56
2021/03/24 08:00:44;;;;;;;18.27;11.57;;;;;;;7.53;63.49;100880.75;6129748;23;20010;-55
2021/03/24 08:03:43;;;;;;;19.08;11.43;;;;;;;7.55;62.96;100875.59;6129666;23;20005;-56
2021/03/24 08:06:19;;;;;;;16.80;10.98;;;;;;;7.55;63.15;100872.81;6104007;23;20012;-57
2021/03/24 08:09:10;;;;;;;19.58;10.00;;;;;;;7.53;62.81;100877.97;6129886;23;20057;-58
2021/03/24 08:11:54;;;;;;;14.85;10.63;;;;;;;7.57;62.55;100881.63;6127644;23;20006;-60
2021/03/24 08:14:40;;;;;;;17.13;11.43;;;;;;;7.57;62.88;100887.22;6129810;23;20311;-56
2021/03/24 08:17:25;;;;;;;19.17;11.15;;;;;;;7.59;63.01;100892.44;6130038;23;20231;-59
2021/03/24 08:20:11;;;;;;;17.88;10.40;;;;;;;7.60;62.94;100888.47;6129423;23;20045;-59
2021/03/24 08:22:53;;;;;;;19.85;10.27;;;;;;;7.59;62.94;100892.44;6129159;23;20096;-61
2021/03/24 08:25:37;;;;;;;17.38;10.18;;;;;;;7.61;62.93;100888.09;6129421;23;20009;-58
2021/03/24 08:28:19;;;;;;;17.63;10.95;;;;;;;7.60;63.33;100894.88;6129795;23;20103;-57
2021/03/24 08:31:21;;;;;;;17.25;11.40;;;;;;;7.62;63.25;100906.50;6129810;23;20017;-57
2021/03/24 08:33:54;;;;;;;15.88;9.20;;;;;;;7.61;62.90;100887.28;6129563;23;20006;-57
2021/03/24 08:36:34;;;;;;;25.92;11.40;;;;;;;7.65;64.98;100897.38;6129257;23;20283;-58
2021/03/24 08:39:37;;;;;;;14.45;9.07;;;;;;;7.85;76.10;100903.75;6129428;23;20013;-61
2021/03/24 08:42:20;;;;;;;17.27;10.52;;;;;;;7.86;64.73;100904.53;6129280;23;20048;-63
2021/03/24 08:45:24;;;;;;;25.05;13.82;;;;;;;7.88;63.59;100905.78;6129760;23;20402;-62
2021/03/24 08:47:54;;;;;;;17.85;12.45;;;;;;;7.79;64.15;100910.03;6123953;23;20013;-60
2021/03/24 08:50:32;;;;;;;18.08;12.48;;;;;;;7.66;65.06;100912.97;6130188;23;20006;-59
2021/03/24 08:53:12;;;;;;;19.70;12.80;;;;;;;7.59;65.37;100910.03;6129659;23;20006;-60
2021/03/24 08:55:49;;;;;;;18.38;11.55;;;;;;;7.51;65.37;100915.88;6129780;23;20106;-63
2021/03/24 08:58:15;;;;;;;18.30;10.82;;;;;;;7.44;65.73;100916.53;6103886;23;20362;-67
2021/03/24 09:01:24;;;;;;;18.20;10.88;;;;;;;7.35;65.41;100918.75;6129982;23;20006;-63
2021/03/24 09:04:26;;;;;;;15.57;10.18;;;;;;;7.25;65.13;100917.34;6129551;23;20006;-64
2021/03/24 09:07:10;;;;;;;15.10;9.27;;;;;;;7.19;65.08;100916.03;6104081;23;20009;-63
2021/03/24 09:10:01;;;;;;;15.18;9.30;;;;;;;7.17;64.81;100912.78;6129162;23;20274;-63
2021/03/24 09:12:36;;;;;;;15.43;9.82;;;;;;;7.13;64.32;100915.50;6129391;23;20006;-57
2021/03/24 09:15:12;;;;;;;12.85;8.45;;;;;;;7.07;64.34;100918.94;6129565;23;20129;-57
2021/03/24 09:17:47;;;;;;;18.05;9.25;;;;;;;7.03;64.19;100918.88;6128924;23;20009;-60
2021/03/24 09:20:31;;;;;;;20.70;9.40;;;;;;;6.98;64.34;100921.97;6129788;23;20017;-60
2021/03/24 09:23:39;;;;;;;16.98;9.77;;;;;;;6.99;64.31;100929.16;6129417;23;20096;-60
2021/03/24 09:26:23;;;;;;;17.90;9.80;;;;;;;7.00;64.38;100929.97;6129706;23;20258;-61
2021/03/24 09:29:05;;;;;;;18.58;10.95;;;;;;;6.94;65.01;100932.25;6129235;23;20240;-62
2021/03/24 09:32:08;;;;;;;25.13;12.32;;;;;;;6.92;64.98;100934.59;6129520;23;20081;-61
2021/03/24 09:34:54;;;;;;;18.35;10.05;;;;;;;6.90;65.39;100931.38;6129368;23;20010;-63
2021/03/24 09:37:30;;;;;;;16.00;8.45;;;;;;;6.92;65.59;100933.78;6129069;23;20044;-64
2021/03/24 09:40:00;;;;;;;13.95;9.45;;;;;;;6.89;65.43;100929.75;6129042;23;20377;-52
2021/03/24 09:43:01;;;;;;;13.45;9.15;;;;;;;6.88;65.68;100933.72;6127873;23;20029;-57
2021/03/24 09:45:32;;;;;;;13.32;9.43;;;;;;;6.84;65.91;100938.38;6116182;23;20114;-57
2021/03/24 09:48:17;;;;;;;15.82;10.32;;;;;;;6.81;65.81;100934.34;6130252;23;20033;-56
2021/03/24 09:51:05;;;;;;;15.48;8.00;;;;;;;6.76;65.45;100936.63;6131104;23;20090;-51
2021/03/24 09:53:36;;;;;;;14.30;9.68;;;;;;;6.67;66.15;100934.03;6131001;23;20002;-57
2021/03/24 09:56:05;;;;;;;17.70;9.70;;;;;;;6.68;66.06;100923.66;6130989;23;20012;-58
2021/03/24 09:59:02;;;;;;;18.52;10.75;;;;;;;6.63;66.42;100926.75;6131059;23;20481;-58
2021/03/24 10:01:49;;;;;;;16.58;9.30;;;;;;;6.68;66.33;100924.47;6130394;23;20013;-55
2021/03/24 10:04:23;;;;;;;22.80;10.98;;;;;;;6.71;66.15;100931.31;6130824;23;20002;-61
2021/03/24 10:07:01;;;;;;;19.15;9.85;;;;;;;6.64;66.18;100934.75;6130605;23;20061;-62
2021/03/24 10:09:34;;;;;;;15.88;9.88;;;;;;;6.65;66.41;100929.97;6129408;23;20279;-60
2021/03/24 10:12:17;;;;;;;10.45;7.78;;;;;;;6.68;65.93;100930.06;6130849;23;20030;-60
2021/03/24 10:15:03;;;;;;;9.02;6.80;;;;;;;6.70;64.54;100929.69;6130562;23;20375;-57
2021/03/24 10:17:36;;;;;;;10.60;7.32;;;;;;;6.72;64.34;100918.97;6130853;23;20009;-58
2021/03/24 10:20:30;;;;;;;12.40;7.35;;;;;;;6.70;63.95;100916.53;6130467;23;20010;-61
2021/03/24 10:23:02;;;;;;;9.35;7.32;;;;;;;6.70;63.85;100916.53;6130769;23;20085;-60
2021/03/24 10:25:41;;;;;;;13.73;6.85;;;;;;;6.75;63.77;100921.84;6130504;23;20006;-58
2021/03/24 10:28:19;;;;;;;13.63;6.68;;;;;;;6.79;62.50;100925.53;6130786;23;20026;-61
2021/03/24 10:30:57;;;;;;;12.43;6.30;;;;;;;6.82;60.98;100919.19;6130622;23;20010;-56
2021/03/24 10:33:32;;;;;;;12.23;5.88;;;;;;;6.79;61.78;100924.72;6130911;23;20012;-57
2021/03/24 10:35:57;;;;;;;7.28;5.45;;;;;;;6.76;61.84;100925.44;6130145;23;20465;-58
2021/03/24 10:38:32;;;;;;;19.55;8.25;;;;;;;6.79;61.50;100914.34;6130444;23;20080;-56
2021/03/24 10:41:05;;;;;;;14.40;7.78;;;;;;;6.80;61.60;100917.94;6130674;23;20014;-58
2021/03/24 10:43:40;;;;;;;19.42;7.72;;;;;;;6.81;60.95;100912.00;6130700;23;20002;-60
2021/03/24 10:46:29;;;;;;;15.85;8.15;;;;;;;6.85;60.61;100914.88;6130375;23;20378;-57
2021/03/24 10:48:59;;;;;;;12.05;7.07;;;;;;;6.91;59.97;100923.78;6130910;23;20002;-60
2021/03/24 10:51:36;;;;;;;13.95;8.30;;;;;;;6.88;60.55;100916.94;6130554;23;20077;-57
2021/03/24 10:54:15;;;;;;;14.38;7.30;;;;;;;6.91;59.83;100921.00;6130679;23;20002;-57
2021/03/24 10:56:43;;;;;;;25.83;12.60;;;;;;;6.92;60.44;100923.44;6130458;23;20013;-61
2021/03/24 10:59:25;;;;;;;18.55;10.00;;;;;;;6.94;60.76;100918.28;6130175;23;20005;-62
2021/03/24 11:01:56;;;;;;;21.30;10.68;;;;;;;6.94;61.05;100915.47;6130654;23;20077;-62
2021/03/24 11:04:43;;;;;;;19.93;6.83;;;;;;;7.02;60.78;100913.66;6130368;23;20001;-60
2021/03/24 11:07:14;;;;;;;17.40;7.82;;;;;;;7.02;60.30;100911.66;6130418;23;20016;-60
2021/03/24 11:09:49;;;;;;;12.38;7.10;;;;;;;7.05;60.74;100921.28;6130975;23;20048;-62
2021/03/24 11:12:20;;;;;;;12.50;7.28;;;;;;;7.05;60.68;100910.94;6130171;23;20364;-63
2021/03/24 11:15:00;;;;;;;8.32;5.30;;;;;;;7.16;60.01;100901.97;6130203;23;20068;-62
2021/03/24 11:17:38;;;;;;;12.27;6.47;;;;;;;7.16;60.06;100899.19;6130390;23;20031;-61
2021/03/24 11:20:44;;;;;;;18.92;10.55;;;;;;;7.24;60.08;100892.56;6129691;23;20065;-60
2021/03/24 11:23:18;;;;;;;12.60;6.28;;;;;;;7.28;59.58;100885.84;6118186;23;20362;-59
2021/03/24 11:25:53;;;;;;;15.70;7.93;;;;;;;7.33;59.74;100881.94;6129980;23;20065;-60
2021/03/24 11:28:34;;;;;;;11.18;6.43;;;;;;;7.39;58.90;100886.06;6130030;23;20001;-54
2021/03/24 11:31:07;;;;;;;9.18;6.10;;;;;;;7.44;58.73;100880.19;6130200;23;20371;-54
2021/03/24 11:33:39;;;;;;;9.85;5.93;;;;;;;7.46;58.98;100874.22;6129647;23;20009;-56
2021/03/24 11:36:28;;;;;;;11.98;6.20;;;;;;;7.47;59.08;100871.06;6130192;23;20013;-55
2021/03/24 11:39:21;;;;;;;8.75;5.63;;;;;;;7.54;58.69;100870.38;6129896;23;20080;-56
2021/03/24 11:41:47;;;;;;;14.73;8.32;;;;;;;7.59;57.93;100870.06;6119980;23;20386;-54
2021/03/24 11:44:21;;;;;;;9.73;6.45;;;;;;;7.60;58.15;100864.09;6130087;23;20021;-57
2021/03/24 11:46:46;;;;;;;8.82;5.50;;;;;;;7.61;58.23;100860.13;6130302;23;20323;-56
2021/03/24 11:49:35;;;;;;;8.07;5.43;;;;;;;7.63;57.50;100854.97;6104052;23;20038;-56
2021/03/24 11:52:14;;;;;;;10.18;6.38;;;;;;;7.65;57.58;100857.38;6130167;23;20077;-59
2021/03/24 11:54:49;;;;;;;9.48;4.97;;;;;;;7.67;57.58;100853.06;6129796;23;20263;-54
2021/03/24 11:57:20;;;;;;;8.32;5.72;;;;;;;7.68;57.58;100857.47;6130043;23;20040;-57
2021/03/24 11:59:45;;;;;;;8.65;5.50;;;;;;;7.70;57.42;100843.91;6130194;23;20081;-56
2021/03/24 12:02:30;;;;;;;9.48;6.10;;;;;;;7.74;56.83;100852.38;6129628;23;20314;-54
2021/03/24 12:04:55;;;;;;;12.38;6.03;;;;;;;7.77;57.19;100836.81;6129828;23;20014;-57
2021/03/24 12:07:39;;;;;;;8.50;5.72;;;;;;;7.79;57.18;100848.44;6104171;23;20041;-56